Time;durP1;ratioP1;P1;durP2;ratioP2;P2;SDS_P1;SDS_P2;PMS_P1;PMS_P2;Temp;Humidity;BMP_temperature;BMP_pressure;BME280_temperature;BME280_humidity;BME280_pressure;Samples;Min_cycle;Max_cycle;Signal;HPM_P1;HPM_P2
2024/02/12 00:02:00;;;;;;;48.15;26.83;;;7.90;99.90;;;;;;7372814;19;20014;-68
2024/02/12 00:04:50;;;;;;;53.05;27.08;;;7.80;99.90;;;;;;7383382;19;20393;-65
2024/02/12 00:07:18;;;;;;;54.25;28.27;;;7.70;99.90;;;;;;7373168;19;20462;-66
2024/02/12 00:09:44;;;;;;;55.45;27.10;;;7.70;99.90;;;;;;7377577;19;20015;-65
2024/02/12 00:12:11;;;;;;;53.92;28.75;;;7.70;99.90;;;;;;7374529;19;20023;-67
2024/02/12 00:14:39;;;;;;;52.75;28.67;;;7.70;99.90;;;;;;7386008;19;20026;-68
2024/02/12 00:17:09;;;;;;;54.53;29.40;;;7.60;99.90;;;;;;7380061;19;20094;-66
2024/02/12 00:19:35;;;;;;;64.95;29.92;;;7.60;99.90;;;;;;7377356;19;20024;-66
2024/02/12 00:22:02;;;;;;;57.47;30.75;;;7.60;99.90;;;;;;7371400;19;20056;-65
2024/02/12 00:24:28;;;;;;;53.03;29.75;;;7.50;99.90;;;;;;7374844;19;20029;-65
2024/02/12 00:27:00;;;;;;;63.25;31.25;;;7.50;99.90;;;;;;7373650;19;20627;-66
2024/02/12 00:29:29;;;;;;;55.72;29.17;;;7.60;99.90;;;;;;7382361;19;20019;-69
2024/02/12 00:32:00;;;;;;;58.40;30.23;;;7.50;99.90;;;;;;7383339;19;20019;-68
2024/02/12 00:34:28;;;;;;;58.78;30.75;;;7.50;99.90;;;;;;7385912;19;20025;-68
2024/02/12 00:36:56;;;;;;;65.68;32.97;;;7.50;99.90;;;;;;7385105;19;20018;-68
2024/02/12 00:39:24;;;;;;;64.25;32.63;;;7.50;99.90;;;;;;7381984;19;20657;-68
2024/02/12 00:41:57;;;;;;;67.57;32.70;;;7.50;99.90;;;;;;7378802;19;20048;-68
2024/02/12 00:44:24;;;;;;;68.85;32.90;;;7.60;99.90;;;;;;7383125;19;20010;-68
2024/02/12 00:46:52;;;;;;;65.45;32.33;;;7.60;99.90;;;;;;7375524;19;20022;-66
2024/02/12 00:49:18;;;;;;;65.88;33.35;;;7.60;99.90;;;;;;7372956;19;20057;-66
2024/02/12 00:51:45;;;;;;;69.78;32.88;;;7.60;99.90;;;;;;7368615;19;20023;-64
2024/02/12 00:54:14;;;;;;;64.43;32.08;;;7.60;99.90;;;;;;7377812;19;20037;-68
2024/02/12 00:56:44;;;;;;;72.47;32.83;;;7.60;99.90;;;;;;7370544;19;20092;-67
2024/02/12 00:59:16;;;;;;;66.47;32.42;;;7.60;99.90;;;;;;7368624;19;20363;-67
2024/02/12 01:01:46;;;;;;;63.42;32.80;;;7.60;99.90;;;;;;7384841;19;20014;-68
2024/02/12 01:04:15;;;;;;;66.43;32.33;;;7.60;99.90;;;;;;7387032;19;20051;-69
2024/02/12 01:06:43;;;;;;;67.18;32.03;;;7.60;99.90;;;;;;7383210;19;20034;-64
2024/02/12 01:09:12;;;;;;;73.07;32.00;;;7.60;99.90;;;;;;7380938;19;20023;-64
2024/02/12 01:11:42;;;;;;;66.25;31.73;;;7.60;99.90;;;;;;7380897;19;20014;-69
2024/02/12 01:14:09;;;;;;;67.13;31.35;;;7.60;99.90;;;;;;7383338;19;20030;-68
2024/02/12 01:16:36;;;;;;;66.20;32.88;;;7.60;99.90;;;;;;7384296;19;20018;-69
2024/02/12 01:19:06;;;;;;;61.97;32.10;;;7.60;99.90;;;;;;7383444;19;20022;-68
2024/02/12 01:21:33;;;;;;;59.05;30.48;;;7.60;99.90;;;;;;7376640;19;20170;-66
2024/02/12 01:24:01;;;;;;;65.35;31.23;;;7.60;99.90;;;;;;7380799;19;20022;-65
2024/02/12 01:26:28;;;;;;;66.47;30.48;;;7.60;99.90;;;;;;7383334;19;20018;-68
2024/02/12 01:28:56;;;;;;;64.90;31.67;;;7.60;99.90;;;;;;7378035;19;20781;-65
2024/02/12 01:31:23;;;;;;;63.60;29.70;;;7.60;99.90;;;;;;7374317;19;20018;-65
2024/02/12 01:33:49;;;;;;;60.10;31.58;;;7.50;99.90;;;;;;7381994;19;20015;-68
2024/02/12 01:36:16;;;;;;;61.88;30.73;;;7.50;99.90;;;;;;7378411;19;20553;-65
2024/02/12 01:38:43;;;;;;;63.20;31.88;;;7.50;99.90;;;;;;7381624;19;20010;-69
2024/02/12 01:41:09;;;;;;;63.30;31.55;;;7.50;99.90;;;;;;7376092;19;20049;-67
2024/02/12 01:43:38;;;;;;;63.55;31.05;;;7.60;99.90;;;;;;7381495;19;20077;-68
2024/02/12 01:46:07;;;;;;;66.80;30.73;;;7.60;99.90;;;;;;7373760;19;20573;-66
2024/02/12 01:48:37;;;;;;;67.97;31.88;;;7.60;99.90;;;;;;7381068;19;20018;-68
2024/02/12 01:51:09;;;;;;;61.88;29.58;;;7.60;99.90;;;;;;7374955;19;20403;-68
2024/02/12 01:53:37;;;;;;;62.85;31.00;;;7.60;99.90;;;;;;7377982;19;20830;-66
2024/02/12 01:56:08;;;;;;;61.15;32.05;;;7.60;99.90;;;;;;7376507;19;20022;-66
2024/02/12 01:58:40;;;;;;;60.08;30.92;;;7.60;99.90;;;;;;7373649;19;20487;-68
2024/02/12 02:01:14;;;;;;;63.53;31.85;;;7.60;99.90;;;;;;7382533;19;20014;-68
2024/02/12 02:03:42;;;;;;;64.43;29.13;;;7.60;99.90;;;;;;7378392;19;20023;-68
2024/02/12 02:06:08;;;;;;;61.88;30.83;;;7.60;99.90;;;;;;7381287;19;20018;-67
2024/02/12 02:08:38;;;;;;;67.72;29.88;;;7.60;99.90;;;;;;7373963;19;20086;-68
2024/02/12 02:11:12;;;;;;;63.28;29.63;;;7.60;99.90;;;;;;7373988;19;20022;-65
2024/02/12 02:13:43;;;;;;;65.60;29.95;;;7.60;99.90;;;;;;7378248;19;20101;-68
2024/02/12 02:16:32;;;;;;;72.45;30.27;;;7.60;99.90;;;;;;7376465;19;20014;-66
2024/02/12 02:18:58;;;;;;;69.07;31.20;;;7.60;99.90;;;;;;7374506;19;20042;-65
2024/02/12 02:21:46;;;;;;;60.45;29.95;;;7.60;99.90;;;;;;7371249;19;20059;-65
2024/02/12 02:24:14;;;;;;;55.72;27.85;;;7.60;99.90;;;;;;7376111;19;20046;-66
2024/02/12 02:26:41;;;;;;;64.32;28.95;;;7.60;99.90;;;;;;7374293;19;20047;-65
2024/02/12 02:29:11;;;;;;;62.40;27.27;;;7.60;99.90;;;;;;7373400;19;20060;-65
2024/02/12 02:31:38;;;;;;;59.63;28.67;;;7.60;99.90;;;;;;7370885;19;20421;-68
2024/02/12 02:34:06;;;;;;;60.03;27.98;;;7.60;99.90;;;;;;7376554;19;20042;-68
2024/02/12 02:36:34;;;;;;;56.45;28.17;;;7.60;99.90;;;;;;7376947;19;20018;-66
2024/02/12 02:39:03;;;;;;;57.78;28.70;;;7.60;99.90;;;;;;7372278;19;20271;-66
2024/02/12 02:41:30;;;;;;;58.90;29.27;;;7.60;99.90;;;;;;7373186;19;20018;-64
2024/02/12 02:43:58;;;;;;;62.15;30.30;;;7.60;99.90;;;;;;7371817;19;20478;-65
2024/02/12 02:46:27;;;;;;;61.22;29.02;;;7.60;99.90;;;;;;7380313;19;20383;-65
2024/02/12 02:48:57;;;;;;;57.85;27.85;;;7.60;99.90;;;;;;7369318;19;20021;-65
2024/02/12 02:51:29;;;;;;;60.88;29.75;;;7.60;99.90;;;;;;7382831;19;20021;-69
2024/02/12 02:53:58;;;;;;;57.80;28.48;;;7.60;99.90;;;;;;7373982;19;20058;-67
2024/02/12 02:56:25;;;;;;;57.55;27.05;;;7.60;99.90;;;;;;7378578;19;20030;-69
2024/02/12 02:58:51;;;;;;;59.00;28.73;;;7.60;99.90;;;;;;7368743;19;20753;-66
2024/02/12 03:01:19;;;;;;;63.85;28.42;;;7.60;99.90;;;;;;7374215;19;20018;-66
2024/02/12 03:03:50;;;;;;;65.07;27.98;;;7.60;99.90;;;;;;7376442;19;20022;-66
2024/02/12 03:06:17;;;;;;;62.60;28.95;;;7.60;99.90;;;;;;7374892;19;20010;-66
2024/02/12 03:08:43;;;;;;;64.15;29.48;;;7.60;99.90;;;;;;7374898;19;20026;-66
2024/02/12 03:11:10;;;;;;;61.83;30.15;;;7.50;99.90;;;;;;7372785;19;20082;-67
2024/02/12 03:13:38;;;;;;;61.85;30.55;;;7.50;99.90;;;;;;7370611;19;20035;-65
2024/02/12 03:16:05;;;;;;;61.50;30.83;;;7.50;99.90;;;;;;7376497;19;20562;-67
2024/02/12 03:18:32;;;;;;;64.10;30.52;;;7.50;99.90;;;;;;7379249;19;20783;-65
2024/02/12 03:20:58;;;;;;;59.10;29.95;;;7.50;99.90;;;;;;7383365;19;20030;-68
2024/02/12 03:23:24;;;;;;;63.40;29.35;;;7.50;99.90;;;;;;7375240;19;20026;-67
2024/02/12 03:25:50;;;;;;;65.85;30.23;;;7.40;99.90;;;;;;7374648;19;20018;-65
2024/02/12 03:28:17;;;;;;;54.55;28.70;;;7.50;99.90;;;;;;7373408;19;20029;-64
2024/02/12 03:30:43;;;;;;;65.00;29.38;;;7.40;99.90;;;;;;7373418;19;20041;-65
2024/02/12 03:33:09;;;;;;;65.18;29.63;;;7.40;99.90;;;;;;7360623;19;20034;-66
2024/02/12 03:35:36;;;;;;;61.35;29.30;;;7.40;99.90;;;;;;7377133;19;20021;-68
2024/02/12 03:38:03;;;;;;;65.22;30.63;;;7.40;99.90;;;;;;7375927;19;20505;-68
2024/02/12 03:40:34;;;;;;;64.93;31.30;;;7.40;99.90;;;;;;7378293;19;20037;-67
2024/02/12 03:43:02;;;;;;;63.25;30.75;;;7.40;99.90;;;;;;7372284;19;20402;-66
2024/02/12 03:45:30;;;;;;;62.63;29.60;;;7.40;99.90;;;;;;7366989;19;20039;-65
2024/02/12 03:48:00;;;;;;;64.00;29.13;;;7.40;99.90;;;;;;7367632;19;20018;-66
2024/02/12 03:59:51;;;;;;;60.88;28.52;;;7.40;99.90;;;;;;7368097;19;20661;-65
2024/02/12 04:01:30;;;;;;;64.30;28.85;;;7.40;99.90;;;;;;7371325;19;20078;-65
2024/02/12 04:03:57;;;;;;;53.67;26.65;;;7.40;99.90;;;;;;7378769;19;20042;-68
2024/02/12 04:06:24;;;;;;;58.65;27.50;;;7.40;99.90;;;;;;7378481;19;20026;-67
2024/02/12 04:08:52;;;;;;;55.15;26.88;;;7.30;99.90;;;;;;7376974;19;20019;-68
2024/02/12 04:11:18;;;;;;;50.50;26.50;;;7.30;99.90;;;;;;7372837;19;20856;-68
2024/02/12 04:13:46;;;;;;;61.72;27.55;;;7.30;99.90;;;;;;7375940;19;20022;-65
2024/02/12 04:16:14;;;;;;;60.67;28.02;;;7.30;99.90;;;;;;7369810;19;20023;-66
2024/02/12 04:18:42;;;;;;;53.42;26.10;;;7.30;99.90;;;;;;7373340;19;20019;-65
2024/02/12 04:21:09;;;;;;;55.05;26.13;;;7.30;99.90;;;;;;7368064;19;20026;-65
2024/02/12 04:23:37;;;;;;;53.25;26.55;;;7.30;99.90;;;;;;7365804;19;20103;-65
2024/02/12 04:26:08;;;;;;;56.45;24.80;;;7.30;99.90;;;;;;7361294;19;20011;-64
2024/02/12 04:28:43;;;;;;;54.47;24.98;;;7.30;99.90;;;;;;7372964;19;20556;-65
2024/02/12 04:31:11;;;;;;;51.50;24.23;;;7.30;99.90;;;;;;7365736;19;20014;-65
2024/02/12 04:33:40;;;;;;;55.78;25.02;;;7.30;99.90;;;;;;7368759;19;20128;-66
2024/02/12 04:36:08;;;;;;;49.65;23.35;;;7.30;99.90;;;;;;7362752;19;20029;-63
2024/02/12 04:38:35;;;;;;;42.92;23.63;;;7.30;99.90;;;;;;7370815;19;20015;-65
2024/02/12 04:41:05;;;;;;;47.65;23.17;;;7.40;99.90;;;;;;7370151;19;20010;-65
2024/02/12 04:43:31;;;;;;;46.00;22.60;;;7.40;99.90;;;;;;7367038;19;20048;-64
2024/02/12 04:45:57;;;;;;;46.80;23.40;;;7.40;99.90;;;;;;7371552;19;20403;-64
2024/02/12 04:48:24;;;;;;;47.38;23.33;;;7.40;99.90;;;;;;7369078;19;20022;-65
2024/02/12 04:50:50;;;;;;;44.42;22.35;;;7.40;99.90;;;;;;7374978;19;20015;-64
2024/02/12 04:53:17;;;;;;;44.85;23.63;;;7.40;99.90;;;;;;7376794;19;20495;-67
2024/02/12 04:55:43;;;;;;;54.75;23.83;;;7.30;99.90;;;;;;7371040;19;20015;-65
2024/02/12 04:58:09;;;;;;;49.45;23.80;;;7.40;99.90;;;;;;7370598;19;20023;-66
2024/02/12 05:00:35;;;;;;;43.92;23.55;;;7.30;99.90;;;;;;7367383;19;20689;-65
2024/02/12 05:03:03;;;;;;;47.50;23.10;;;7.30;99.90;;;;;;7368194;19;20399;-65
2024/02/12 05:05:30;;;;;;;48.40;23.65;;;7.40;99.90;;;;;;7365844;19;20036;-65
2024/02/12 05:07:57;;;;;;;50.88;24.73;;;7.30;99.90;;;;;;7378895;19;20018;-66
2024/02/12 05:10:24;;;;;;;44.50;24.20;;;7.30;99.90;;;;;;7372172;19;20010;-64
2024/02/12 05:12:57;;;;;;;46.80;25.13;;;7.30;99.90;;;;;;7369488;19;20453;-65
2024/02/12 05:15:24;;;;;;;54.10;24.83;;;7.30;99.90;;;;;;7367685;19;20032;-65
2024/02/12 05:18:02;;;;;;;57.00;25.83;;;7.20;99.90;;;;;;7370570;19;20085;-64
2024/02/12 05:23:14;;;;;;;51.97;26.42;;;7.10;99.90;;;;;;7371142;19;20144;-68
2024/02/12 05:25:43;;;;;;;56.22;26.30;;;7.20;99.90;;;;;;7376499;19;20043;-65
2024/02/12 05:28:10;;;;;;;55.28;26.17;;;7.20;99.90;;;;;;7368962;19;20026;-66
2024/02/12 05:30:37;;;;;;;56.22;25.92;;;7.20;99.90;;;;;;7376028;19;20775;-67
2024/02/12 05:33:07;;;;;;;57.65;26.88;;;7.10;99.90;;;;;;7375689;19;20135;-65
2024/02/12 05:35:36;;;;;;;55.50;26.77;;;7.10;99.90;;;;;;7371434;19;20836;-67
2024/02/12 05:38:03;;;;;;;57.88;27.45;;;7.10;99.90;;;;;;7373971;19;20490;-67
2024/02/12 05:40:30;;;;;;;55.75;28.63;;;7.00;99.90;;;;;;7376354;19;20092;-68
2024/02/12 05:42:57;;;;;;;53.25;27.08;;;7.00;99.90;;;;;;7379472;19;20928;-67
2024/02/12 05:45:24;;;;;;;56.38;26.85;;;6.90;99.90;;;;;;7373364;19;20078;-68
2024/02/12 05:47:57;;;;;;;57.47;27.27;;;6.90;99.90;;;;;;7377010;19;20431;-65
2024/02/12 05:50:24;;;;;;;55.45;27.40;;;6.90;99.90;;;;;;7376953;19;20708;-67
2024/02/12 05:52:54;;;;;;;60.25;28.02;;;6.80;99.90;;;;;;7375412;19;20015;-65
2024/02/12 05:55:21;;;;;;;66.50;28.42;;;6.80;99.90;;;;;;7376252;19;20015;-67
2024/02/12 05:57:47;;;;;;;69.05;29.92;;;6.80;99.90;;;;;;7382922;19;20018;-68
2024/02/12 06:00:14;;;;;;;64.70;29.48;;;6.80;99.90;;;;;;7378084;19;20022;-64
2024/02/12 06:02:52;;;;;;;65.18;30.30;;;6.70;99.90;;;;;;7379506;19;20030;-67
2024/02/12 06:05:18;;;;;;;68.68;29.20;;;6.70;99.90;;;;;;7368690;19;20029;-64
2024/02/12 06:07:44;;;;;;;71.40;30.52;;;6.70;99.90;;;;;;7377306;19;20078;-68
2024/02/12 06:10:10;;;;;;;69.10;30.52;;;6.60;99.90;;;;;;7374086;19;20018;-66
2024/02/12 06:12:36;;;;;;;66.07;31.45;;;6.60;99.90;;;;;;7376846;19;20014;-68
2024/02/12 06:15:03;;;;;;;58.42;28.38;;;6.60;99.90;;;;;;7378361;19;20023;-64
2024/02/12 06:17:33;;;;;;;65.03;30.25;;;6.60;99.90;;;;;;7378063;19;20029;-68
2024/02/12 06:19:59;;;;;;;69.60;30.25;;;6.60;99.90;;;;;;7373961;19;20023;-68
2024/02/12 06:22:28;;;;;;;69.00;30.38;;;6.60;99.90;;;;;;7379752;19;20509;-65
2024/02/12 06:24:54;;;;;;;71.13;32.97;;;6.60;99.90;;;;;;7370119;19;20022;-65
2024/02/12 06:27:20;;;;;;;75.72;32.40;;;6.60;99.90;;;;;;7376443;19;20090;-64
2024/02/12 06:29:46;;;;;;;79.03;33.35;;;6.60;99.90;;;;;;7373190;19;20053;-66
2024/02/12 06:32:14;;;;;;;75.75;31.67;;;6.70;99.90;;;;;;7370751;19;20021;-67
2024/02/12 06:34:43;;;;;;;72.85;33.10;;;6.60;99.90;;;;;;7378784;19;20038;-68
2024/02/12 06:37:11;;;;;;;79.13;34.05;;;6.70;99.90;;;;;;7377179;19;20455;-68
2024/02/12 06:39:39;;;;;;;82.72;35.20;;;6.70;99.90;;;;;;7371258;19;20497;-66
2024/02/12 06:42:06;;;;;;;83.53;35.78;;;6.80;99.90;;;;;;7372397;19;20022;-67
2024/02/12 06:44:32;;;;;;;83.10;36.33;;;6.80;99.90;;;;;;7375899;19;20015;-67
2024/02/12 06:46:59;;;;;;;86.63;37.10;;;6.80;99.90;;;;;;7371545;19;20828;-64
2024/02/12 06:49:25;;;;;;;87.03;36.55;;;6.90;99.90;;;;;;7369702;19;20018;-64
2024/02/12 06:51:52;;;;;;;83.97;37.72;;;6.90;99.90;;;;;;7368915;19;20066;-68
2024/02/12 06:54:18;;;;;;;97.20;40.70;;;6.90;99.90;;;;;;7373050;19;20022;-67
2024/02/12 06:56:45;;;;;;;86.68;38.92;;;6.90;99.90;;;;;;7371212;19;20039;-66
2024/02/12 06:59:12;;;;;;;87.88;38.30;;;7.00;99.90;;;;;;7372632;19;20015;-63
2024/02/12 07:01:40;;;;;;;87.00;40.55;;;7.00;99.90;;;;;;7374387;19;20089;-65
2024/02/12 07:04:08;;;;;;;83.25;38.75;;;7.00;99.90;;;;;;7374720;19;20010;-67
2024/02/12 07:06:35;;;;;;;82.38;38.13;;;7.00;99.90;;;;;;7373055;19;20014;-68
2024/02/12 07:09:02;;;;;;;80.70;38.55;;;7.00;99.90;;;;;;7372643;19;20074;-67
2024/02/12 07:11:29;;;;;;;80.65;36.35;;;7.00;99.90;;;;;;7371346;19;20015;-67
2024/02/12 07:13:56;;;;;;;81.60;38.25;;;7.00;99.90;;;;;;7376209;19;20015;-68
2024/02/12 07:16:23;;;;;;;85.78;38.72;;;7.00;99.90;;;;;;7371751;19;20527;-68
2024/02/12 07:18:50;;;;;;;77.28;37.25;;;7.10;99.90;;;;;;7371515;19;20486;-67
2024/02/12 07:21:16;;;;;;;88.75;39.20;;;7.00;99.90;;;;;;7374375;19;20024;-67
2024/02/12 07:23:43;;;;;;;78.97;36.58;;;7.00;99.90;;;;;;7372306;19;20045;-67
2024/02/12 07:26:10;;;;;;;83.40;38.60;;;7.00;99.90;;;;;;7375104;19;20109;-67
2024/02/12 07:28:36;;;;;;;83.43;36.38;;;7.00;99.90;;;;;;7369507;19;20074;-67
2024/02/12 07:31:07;;;;;;;77.95;37.13;;;7.00;99.90;;;;;;7378972;19;20037;-67
2024/02/12 07:33:35;;;;;;;77.05;35.53;;;7.00;99.90;;;;;;7369941;19;20019;-67
2024/02/12 07:36:05;;;;;;;75.20;37.42;;;7.00;99.90;;;;;;7371653;19;20426;-67
2024/02/12 07:38:32;;;;;;;76.35;35.50;;;7.00;99.90;;;;;;7371265;19;20014;-65
2024/02/12 07:40:59;;;;;;;80.13;37.55;;;7.00;99.90;;;;;;7366100;19;20014;-65
2024/02/12 07:43:28;;;;;;;72.68;35.97;;;7.10;99.90;;;;;;7372575;19;20064;-65
2024/02/12 07:45:55;;;;;;;74.68;36.70;;;7.10;99.90;;;;;;7373127;19;20047;-65
2024/02/12 07:48:22;;;;;;;75.65;36.20;;;7.10;99.90;;;;;;7374585;19;20047;-65
2024/02/12 07:50:52;;;;;;;77.13;36.88;;;7.20;99.90;;;;;;7365920;19;20022;-64
2024/02/12 07:53:24;;;;;;;74.70;35.10;;;7.20;99.90;;;;;;7371291;19;20026;-65
2024/02/12 07:55:57;;;;;;;69.60;34.20;;;7.20;99.90;;;;;;7359959;19;20610;-65
2024/02/12 07:58:24;;;;;;;71.80;35.78;;;7.20;99.90;;;;;;7368755;19;20053;-65
2024/02/12 08:00:50;;;;;;;68.47;35.75;;;7.20;99.90;;;;;;7370195;19;20029;-69
2024/02/12 08:03:18;;;;;;;66.97;32.83;;;7.30;99.90;;;;;;7371371;19;20078;-66
2024/02/12 08:05:48;;;;;;;59.63;32.92;;;7.30;99.90;;;;;;7368275;19;20025;-66
2024/02/12 08:08:15;;;;;;;72.72;35.03;;;7.30;99.90;;;;;;7361189;19;20298;-66
2024/02/12 08:10:43;;;;;;;73.00;33.63;;;7.30;99.90;;;;;;7366135;19;20022;-67
2024/02/12 08:13:10;;;;;;;61.25;32.95;;;7.30;99.90;;;;;;7365233;19;20022;-67
2024/02/12 08:15:40;;;;;;;59.60;31.67;;;7.40;99.90;;;;;;7370271;19;20048;-66
2024/02/12 08:18:25;;;;;;;62.63;32.05;;;7.30;99.90;;;;;;7368380;19;20160;-67
2024/02/12 08:20:53;;;;;;;57.30;30.38;;;7.40;99.90;;;;;;7373406;19;20538;-67
2024/02/12 08:23:20;;;;;;;61.85;32.50;;;7.50;99.90;;;;;;7369370;19;20565;-67
2024/02/12 08:25:47;;;;;;;57.33;30.08;;;7.50;99.90;;;;;;7374151;19;20516;-67
2024/02/12 08:28:14;;;;;;;56.70;29.52;;;7.50;99.90;;;;;;7371345;19;20037;-67
2024/02/12 08:30:41;;;;;;;58.80;28.83;;;7.40;99.90;;;;;;7372535;19;20015;-67
2024/02/12 08:33:08;;;;;;;49.70;29.70;;;7.40;99.90;;;;;;7379959;19;20037;-67
2024/02/12 08:35:34;;;;;;;58.10;30.30;;;7.50;99.90;;;;;;7378978;19;20030;-67
2024/02/12 08:38:03;;;;;;;51.20;28.40;;;7.80;99.90;;;;;;7374494;19;20018;-67
2024/02/12 08:40:30;;;;;;;48.95;27.42;;;8.40;99.90;;;;;;7364846;19;20386;-65
2024/02/12 08:42:58;;;;;;;42.05;26.50;;;8.90;99.90;;;;;;7366436;19;20419;-65
2024/02/12 08:45:25;;;;;;;38.47;24.90;;;9.50;99.90;;;;;;7363940;19;20033;-64
2024/02/12 08:48:02;;;;;;;32.83;23.52;;;9.80;99.90;;;;;;7370364;19;20014;-68
2024/02/12 08:50:28;;;;;;;35.55;23.02;;;10.50;99.90;;;;;;7368017;19;20017;-68
2024/02/12 08:52:54;;;;;;;32.70;22.40;;;10.90;99.90;;;;;;7376678;19;20092;-69
2024/02/12 08:55:22;;;;;;;38.83;24.40;;;11.20;99.90;;;;;;7372268;19;20098;-69
2024/02/12 08:57:49;;;;;;;34.13;22.63;;;11.90;99.90;;;;;;7372202;19;20031;-69
2024/02/12 09:00:18;;;;;;;31.50;21.13;;;11.60;99.90;;;;;;7369745;19;20027;-70
2024/02/12 09:02:59;;;;;;;35.30;21.83;;;11.50;99.90;;;;;;7375422;19;20910;-69
2024/02/12 09:05:28;;;;;;;31.33;21.50;;;11.10;99.90;;;;;;7366322;19;20034;-67
2024/02/12 09:07:54;;;;;;;34.53;22.13;;;10.90;99.90;;;;;;7372987;19;20025;-65
2024/02/12 09:10:21;;;;;;;31.67;21.77;;;10.60;99.90;;;;;;7364128;19;20014;-65
2024/02/12 09:12:47;;;;;;;31.85;21.02;;;10.30;99.90;;;;;;7366748;19;20435;-65
2024/02/12 09:15:14;;;;;;;31.00;20.08;;;10.00;99.90;;;;;;7368189;19;20769;-67
2024/02/12 09:17:40;;;;;;;30.08;18.83;;;9.90;99.90;;;;;;7367910;19;20022;-65
2024/02/12 09:20:11;;;;;;;29.45;19.05;;;9.80;99.90;;;;;;7370755;19;20015;-66
2024/02/12 09:22:38;;;;;;;29.30;19.70;;;9.50;99.90;;;;;;7365162;19;20082;-66
2024/02/12 09:25:09;;;;;;;29.58;17.77;;;9.40;99.90;;;;;;7377092;19;20052;-66
2024/02/12 09:27:40;;;;;;;25.83;18.88;;;9.40;99.90;;;;;;7373028;19;20019;-66
2024/02/12 09:30:09;;;;;;;26.65;17.25;;;9.70;99.90;;;;;;7379904;19;20014;-69
2024/02/12 09:32:42;;;;;;;23.88;16.15;;;10.30;99.90;;;;;;7367501;19;20703;-69
2024/02/12 09:35:11;;;;;;;23.38;15.60;;;10.90;99.90;;;;;;7373049;19;20872;-71
2024/02/12 09:37:40;;;;;;;27.58;16.13;;;11.60;99.90;;;;;;7374976;19;20022;-70
2024/02/12 09:40:07;;;;;;;27.55;17.13;;;11.50;99.90;;;;;;7363203;19;20022;-70
2024/02/12 09:42:50;;;;;;;23.30;17.25;;;11.50;99.90;;;;;;7367600;19;20069;-70
2024/02/12 09:45:18;;;;;;;22.27;15.95;;;11.10;99.90;;;;;;7361470;19;20047;-69
2024/02/12 09:47:46;;;;;;;25.75;14.70;;;11.10;99.90;;;;;;7364824;19;20018;-69
2024/02/12 09:50:14;;;;;;;26.17;15.48;;;10.70;99.90;;;;;;7368464;19;20121;-69
2024/02/12 09:52:43;;;;;;;23.73;14.63;;;10.60;99.90;;;;;;7366060;19;20416;-69
2024/02/12 09:55:12;;;;;;;27.67;14.68;;;10.20;99.90;;;;;;7366126;19;20082;-68
2024/02/12 09:57:40;;;;;;;23.25;15.02;;;9.90;99.90;;;;;;7366499;19;20050;-69
2024/02/12 10:00:08;;;;;;;23.80;15.80;;;9.80;99.90;;;;;;7367759;19;20014;-68
2024/02/12 10:02:43;;;;;;;;;;;10.00;99.90;;;;;;7369566;19;20036;-69
2024/02/12 10:05:31;;;;;;;23.85;16.70;;;10.40;99.90;;;;;;7370030;19;20389;-69
2024/02/12 10:08:20;;;;;;;25.48;16.60;;;11.40;99.90;;;;;;7368360;19;20011;-66
2024/02/12 10:15:00;;;;;;;22.88;15.80;;;13.20;99.90;;;;;;7322003;19;20014;-66
2024/02/12 10:17:47;;;;;;;26.52;16.33;;;14.50;99.90;;;;;;7371497;19;20043;-66
2024/02/12 10:20:34;;;;;;;19.65;14.70;;;14.80;99.90;;;;;;7371513;19;20045;-66
2024/02/12 10:23:22;;;;;;;18.77;14.55;;;14.30;99.90;;;;;;7367568;19;20051;-65
2024/02/12 10:26:08;;;;;;;19.75;15.68;;;13.90;99.90;;;;;;7373591;19;20026;-65
2024/02/12 10:29:00;;;;;;;21.52;15.73;;;13.30;99.90;;;;;;7374713;19;20617;-66
2024/02/12 10:31:54;;;;;;;18.45;11.50;;;13.20;99.90;;;;;;7370513;19;20743;-65
2024/02/12 10:34:44;;;;;;;15.88;11.23;;;12.20;99.90;;;;;;7376873;19;20022;-63
2024/02/12 10:37:32;;;;;;;17.27;10.27;;;11.80;99.90;;;;;;7369338;19;20027;-64
2024/02/12 10:40:29;;;;;;;16.92;10.98;;;11.50;99.90;;;;;;7364758;19;20018;-63
2024/02/12 10:43:20;;;;;;;17.13;9.82;;;11.20;99.90;;;;;;7369356;19;20804;-61
2024/02/12 10:46:07;;;;;;;16.42;9.93;;;11.00;99.90;;;;;;7372730;19;20022;-64
2024/02/12 10:48:55;;;;;;;11.85;8.88;;;10.90;99.90;;;;;;7365058;19;20023;-63
2024/02/12 10:51:43;;;;;;;13.40;8.60;;;11.00;99.90;;;;;;7370825;19;20051;-63
2024/02/12 10:54:30;;;;;;;13.07;10.15;;;11.20;99.90;;;;;;7369831;19;20827;-63
2024/02/12 10:56:57;;;;;;;15.35;9.55;;;10.90;99.90;;;;;;7369759;19;20015;-63
2024/02/12 10:59:25;;;;;;;15.93;9.48;;;10.70;99.90;;;;;;7367879;19;20018;-63
2024/02/12 11:01:51;;;;;;;15.27;10.60;;;10.70;99.90;;;;;;7371449;19;20022;-63
2024/02/12 11:04:18;;;;;;;17.23;10.38;;;10.60;99.90;;;;;;7369271;19;20026;-63
2024/02/12 11:06:47;;;;;;;15.45;10.10;;;10.50;99.90;;;;;;7370917;19;20795;-63
2024/02/12 11:09:13;;;;;;;21.95;10.23;;;10.60;99.90;;;;;;7374241;19;20029;-62
2024/02/12 11:11:48;;;;;;;15.40;9.05;;;10.60;99.90;;;;;;7368185;19;20027;-62
2024/02/12 11:14:18;;;;;;;15.13;9.25;;;10.70;99.90;;;;;;7371191;19;20028;-63
2024/02/12 11:16:49;;;;;;;15.32;9.70;;;10.60;99.90;;;;;;7370483;19;20090;-61
2024/02/12 11:19:16;;;;;;;11.90;8.80;;;10.70;99.90;;;;;;7372045;19;20445;-63
2024/02/12 11:21:44;;;;;;;15.55;9.15;;;10.60;99.90;;;;;;7370540;19;20025;-65
2024/02/12 11:24:12;;;;;;;12.57;8.30;;;10.60;99.90;;;;;;7377704;19;20014;-65
2024/02/12 11:26:43;;;;;;;13.80;8.27;;;10.50;99.90;;;;;;7374067;19;20022;-65
2024/02/12 11:29:11;;;;;;;14.23;8.15;;;10.40;99.90;;;;;;7374864;19;20369;-66
2024/02/12 11:31:41;;;;;;;16.00;8.70;;;10.40;99.90;;;;;;7371538;19;20014;-65
2024/02/12 11:34:12;;;;;;;14.68;8.43;;;10.40;99.90;;;;;;7373308;19;20041;-65
2024/02/12 11:36:40;;;;;;;12.90;8.52;;;10.40;99.90;;;;;;7373313;19;20023;-65
2024/02/12 11:39:07;;;;;;;12.10;7.22;;;10.30;99.90;;;;;;7374526;19;20019;-66
2024/02/12 11:41:34;;;;;;;14.60;7.97;;;10.20;99.90;;;;;;7377673;19;20025;-64
2024/02/12 11:44:05;;;;;;;14.48;7.55;;;10.10;99.90;;;;;;7372700;19;20018;-64
2024/02/12 11:46:33;;;;;;;15.23;7.40;;;10.10;99.90;;;;;;7375361;19;20015;-66
2024/02/12 11:49:08;;;;;;;10.38;6.07;;;10.00;99.90;;;;;;7372136;19;20845;-65
2024/02/12 11:51:39;;;;;;;13.50;6.63;;;10.00;99.90;;;;;;7374848;19;20022;-65
2024/02/12 11:54:09;;;;;;;13.88;5.57;;;10.10;99.90;;;;;;7375611;19;20015;-64
2024/02/12 11:56:36;;;;;;;9.48;5.25;;;10.10;99.90;;;;;;7374708;19;20022;-65
2024/02/12 11:59:04;;;;;;;10.93;6.10;;;10.20;99.90;;;;;;7373133;19;20351;-63
2024/02/12 12:01:32;;;;;;;12.63;6.03;;;10.30;99.90;;;;;;7374241;19;20383;-64
2024/02/12 12:04:00;;;;;;;11.90;5.38;;;10.40;99.90;;;;;;7377581;19;20437;-65
2024/02/12 12:06:33;;;;;;;10.50;5.03;;;10.60;99.90;;;;;;7374070;19;20006;-64
2024/02/12 12:09:02;;;;;;;13.68;4.93;;;10.50;99.90;;;;;;7376811;19;20626;-65
2024/02/12 12:11:30;;;;;;;7.65;3.63;;;10.60;99.90;;;;;;7373919;19;20022;-63
2024/02/12 12:14:02;;;;;;;11.30;3.95;;;10.50;99.90;;;;;;7372899;19;20453;-64
2024/02/12 12:16:30;;;;;;;;;;;10.40;99.90;;;;;;7377001;19;20014;-64
2024/02/12 12:19:01;;;;;;;8.23;3.95;;;10.40;99.90;;;;;;7375325;19;19939;-62
2024/02/12 12:21:33;;;;;;;12.02;4.18;;;10.40;99.90;;;;;;7368260;19;21233;-63
2024/02/12 12:24:03;;;;;;;9.57;4.65;;;10.50;99.90;;;;;;7372505;19;20066;-62
2024/02/12 12:26:30;;;;;;;9.57;4.28;;;10.70;99.90;;;;;;7371929;19;20026;-62
2024/02/12 12:28:59;;;;;;;9.50;4.28;;;10.60;99.90;;;;;;7378254;19;20093;-63
2024/02/12 12:31:27;;;;;;;11.23;5.22;;;10.60;99.90;;;;;;7372462;19;20037;-64
2024/02/12 12:33:54;;;;;;;13.00;4.38;;;10.70;99.90;;;;;;7376738;19;20117;-63
2024/02/12 12:36:21;;;;;;;9.07;4.75;;;10.80;99.90;;;;;;7374959;19;20018;-63
2024/02/12 12:38:48;;;;;;;13.27;4.70;;;10.70;99.90;;;;;;7378122;19;20022;-64
2024/02/12 12:41:16;;;;;;;8.55;4.57;;;10.70;99.90;;;;;;7373842;19;20065;-60
2024/02/12 12:43:43;;;;;;;10.82;4.45;;;10.70;99.90;;;;;;7370377;19;20014;-60
2024/02/12 12:46:10;;;;;;;9.52;3.55;;;10.90;99.90;;;;;;7375460;19;20014;-60
2024/02/12 12:48:55;;;;;;;8.60;3.85;;;11.00;99.90;;;;;;7369669;19;20057;-60
2024/02/12 12:51:21;;;;;;;9.73;3.95;;;11.20;99.90;;;;;;7371630;19;20018;-60
2024/02/12 12:53:47;;;;;;;8.10;3.95;;;11.30;99.90;;;;;;7372496;19;20078;-60
2024/02/12 12:56:13;;;;;;;10.25;4.57;;;11.60;99.90;;;;;;7375995;19;20106;-60
2024/02/12 12:58:40;;;;;;;8.65;4.10;;;11.70;99.90;;;;;;7378465;19;20019;-60
2024/02/12 13:01:08;;;;;;;8.60;4.00;;;11.50;99.90;;;;;;7382683;19;20769;-60
2024/02/12 13:03:42;;;;;;;7.50;3.75;;;11.50;99.90;;;;;;7377970;19;20025;-60